Portada
METAR-TAF:

METAR-TAF

Aeropuertos :

Aeropuerto de San Sebastián

San Sebastián, España

latitud: 43-21N, longitud: 001-48W, altitud: 5 m

Observación

El informe se hizo hace 26 minutos, a las 03:00 UTC
Viento 2 kt con dirección variable
Temperatura 14°C
Humedad 94%
Presión 1015 hPa
Visibilidad 10 km o más
sin nubes por debajo de 1500 m y sin presencia de cumulonimbus.

METAR: LESO 080300Z AUTO VRB02KT CAVOK 14/13 Q1015

Hora: 05:26 (03:26 UTC)

Pronóstico

El informe se hizo hace 4 horas y 26 minutos, a las 23:00 UTC
Pronóstico válido del 08 a las 00 UTC al 08 a las 24 UTC
Viento 5 kt con dirección variable
Visibilidad 10 km o más
Nubes dispersas a una altura de 3500 ft
Temporalmente
del 08 a las 07 UTC al 08 a las 15 UTC
Viento 12 kt del sur
Temporalmente
del 08 a las 13 UTC al 08 a las 19 UTC
Viento 11 kt del norte-noroeste

TAF: LESO 072300Z 0800/0824 VRB05KT 9999 SCT035 TX28/0815Z TN13/0804Z TEMPO 0807/0815 18012KT TEMPO 0813/0819 34011KT

Observaciones y pronósticos meteorológicos de más de 4000 aeropuertos (mensajes METAR y TAF).

Los puntos amarillos y rojos representan las estaciones disponibles.

Ponga el ratón en el punto deseado para ver el nombre de la estación.

Haga clic para ver las observaciones y los pronósticos meteorológicos.

Para cambiar el mapa : haga clic en los botones verdes con una cruz de color negro para hacer un zoom, en el botón verde con un guión para alejar o en las flechas verdes para mapas adyacentes.


METAR-TAF: